createdAt,value
2023-04-15T00:00:59.783Z,99581.88
2023-04-15T00:03:29.967Z,99575.90
2023-04-15T00:06:03.993Z,99572.84
2023-04-15T00:08:32.267Z,99568.59
2023-04-15T00:11:03.152Z,99574.90
2023-04-15T00:13:34.803Z,99580.02
2023-04-15T00:16:03.182Z,99583.54
2023-04-15T00:18:31.773Z,99584.50
2023-04-15T00:20:59.603Z,99581.57
2023-04-15T00:23:28.390Z,99584.41
2023-04-15T00:25:56.505Z,99585.71
2023-04-15T00:28:24.466Z,99593.15
2023-04-15T00:30:52.346Z,99585.71
2023-04-15T00:33:20.258Z,99586.15
2023-04-15T00:35:48.123Z,99575.32
2023-04-15T00:38:16.655Z,99574.08
2023-04-15T00:40:44.595Z,99566.15
2023-04-15T00:43:13.592Z,99569.46
2023-04-15T00:45:43.556Z,99579.46
2023-04-15T00:48:11.804Z,99582.31
2023-04-15T00:50:39.853Z,99581.73
2023-04-15T00:53:07.735Z,99584.30
2023-04-15T00:55:37.350Z,99586.33
2023-04-15T00:58:14.497Z,99586.55
2023-04-15T01:00:44.832Z,99589.39
2023-04-15T01:03:15.463Z,99588.45
2023-04-15T01:05:44.477Z,99591.77
2023-04-15T01:08:12.386Z,99588.67
2023-04-15T01:10:40.815Z,99585.23
2023-04-15T01:13:09.326Z,99588.23
2023-04-15T01:15:37.929Z,99587.70
2023-04-15T01:18:05.819Z,99583.11
2023-04-15T01:20:34.835Z,99582.89
2023-04-15T01:23:02.724Z,99587.66
2023-04-15T01:25:34.786Z,99597.09
2023-04-15T01:28:03.378Z,99600.82
2023-04-15T01:30:35.968Z,99603.86
2023-04-15T01:33:04.225Z,99605.70
2023-04-15T01:35:32.409Z,99611.48
2023-04-15T01:38:05.662Z,99618.19
2023-04-15T01:40:35.117Z,99619.52
2023-04-15T01:43:03.870Z,99613.34
2023-04-15T01:45:31.950Z,99617.23
2023-04-15T01:47:59.889Z,99619.27
2023-04-15T01:50:28.422Z,99620.80
2023-04-15T01:52:57.067Z,99627.42
2023-04-15T01:55:25.627Z,99624.14
2023-04-15T01:57:53.923Z,99622.55
2023-04-15T02:00:23.179Z,99624.10
2023-04-15T02:02:51.521Z,99622.77
2023-04-15T02:05:19.392Z,99631.60
2023-04-15T02:07:48.663Z,99638.90
2023-04-15T02:10:17.344Z,99638.80
2023-04-15T02:12:45.851Z,99642.30
2023-04-15T02:15:13.761Z,99644.48
2023-04-15T02:17:46.122Z,99641.15
2023-04-15T02:20:18.789Z,99641.23
2023-04-15T02:22:48.373Z,99641.69
2023-04-15T02:25:19.061Z,99641.52
2023-04-15T02:27:46.920Z,99643.61
2023-04-15T02:30:14.919Z,99645.45
2023-04-15T02:32:45.131Z,99645.00
2023-04-15T02:35:13.440Z,99646.43
2023-04-15T02:37:43.549Z,99650.81
2023-04-15T02:40:12.368Z,99654.39
2023-04-15T02:42:41.226Z,99655.86
2023-04-15T02:45:12.856Z,99660.57
2023-04-15T02:47:41.729Z,99664.33
2023-04-15T02:50:12.858Z,99666.00
2023-04-15T02:52:42.304Z,99660.73
2023-04-15T02:55:11.757Z,99662.37
2023-04-15T02:57:41.196Z,99660.45
2023-04-15T03:00:12.078Z,99665.83
2023-04-15T03:02:44.476Z,99663.35
2023-04-15T03:05:13.303Z,99662.52
2023-04-15T03:07:44.070Z,99662.38
2023-04-15T03:10:13.070Z,99658.27
2023-04-15T03:12:40.971Z,99655.90
2023-04-15T03:15:12.687Z,99658.47
2023-04-15T03:17:44.539Z,99655.20
2023-04-15T03:20:12.717Z,99656.86
2023-04-15T03:22:45.625Z,99660.04
2023-04-15T03:25:13.933Z,99661.91
2023-04-15T03:27:42.045Z,99657.77
2023-04-15T03:30:13.206Z,99663.39
2023-04-15T03:32:41.685Z,99658.42
2023-04-15T03:35:10.195Z,99660.80
2023-04-15T03:37:40.861Z,99662.20
2023-04-15T03:40:10.045Z,99662.88
2023-04-15T03:42:38.247Z,99667.16
2023-04-15T03:45:08.785Z,99674.02
2023-04-15T03:47:37.905Z,99671.62
2023-04-15T03:50:07.319Z,99661.35
2023-04-15T03:52:35.832Z,99663.23
2023-04-15T03:55:03.905Z,99656.44
2023-04-15T03:57:38.102Z,99658.67
2023-04-15T04:00:06.837Z,99662.30
2023-04-15T04:02:40.481Z,99661.09
2023-04-15T04:05:09.020Z,99663.01
2023-04-15T04:07:37.014Z,99666.14
2023-04-15T04:10:05.236Z,99670.80
2023-04-15T04:12:33.359Z,99673.21
2023-04-15T04:15:03.290Z,99677.83
2023-04-15T04:17:32.050Z,99676.42
2023-04-15T04:19:59.993Z,99681.29
2023-04-15T04:22:29.073Z,99681.58
2023-04-15T04:24:59.418Z,99681.28
2023-04-15T04:27:27.868Z,99681.64
2023-04-15T04:29:55.909Z,99685.23
2023-04-15T04:32:23.801Z,99688.81
2023-04-15T04:34:51.734Z,99688.80
2023-04-15T04:37:20.910Z,99682.52
2023-04-15T04:39:48.728Z,99682.39
2023-04-15T04:42:16.786Z,99687.87
2023-04-15T04:44:47.200Z,99679.19
2023-04-15T04:47:15.058Z,99677.46
2023-04-15T04:49:42.863Z,99674.71
2023-04-15T04:52:10.996Z,99676.25
2023-04-15T04:54:39.129Z,99676.76
2023-04-15T04:57:08.150Z,99683.13
2023-04-15T04:59:36.620Z,99674.58
2023-04-15T05:02:04.468Z,99681.20
2023-04-15T05:04:32.496Z,99678.08
2023-04-15T05:07:07.037Z,99682.69
2023-04-15T05:09:36.808Z,99681.14
2023-04-15T05:12:04.862Z,99679.34
2023-04-15T05:14:33.321Z,99683.58
2023-04-15T05:17:03.498Z,99691.05
2023-04-15T05:19:32.453Z,99692.95
2023-04-15T05:22:00.485Z,99693.45
2023-04-15T05:24:28.324Z,99696.52
2023-04-15T05:26:59.424Z,99702.38
2023-04-15T05:29:27.728Z,99708.17
2023-04-15T05:31:56.110Z,99706.32
2023-04-15T05:34:24.665Z,99707.60
2023-04-15T05:36:52.720Z,99707.50
2023-04-15T05:39:20.778Z,99703.90
2023-04-15T05:41:49.223Z,99707.00
2023-04-15T05:44:17.175Z,99710.29
2023-04-15T05:46:45.613Z,99713.16
2023-04-15T05:49:13.500Z,99712.81
2023-04-15T05:51:42.238Z,99711.67
2023-04-15T05:54:10.101Z,99710.41
2023-04-15T05:56:40.063Z,99710.02
2023-04-15T05:59:08.646Z,99706.94
2023-04-15T06:01:36.637Z,99713.34
2023-04-15T06:04:05.574Z,99715.15
2023-04-15T06:06:33.617Z,99717.44
2023-04-15T06:09:01.716Z,99719.42
2023-04-15T06:11:34.442Z,99722.27
2023-04-15T06:14:02.344Z,99726.17
2023-04-15T06:16:30.379Z,99722.42
2023-04-15T06:18:58.330Z,99720.77
2023-04-15T06:21:27.042Z,99727.34
2023-04-15T06:23:54.928Z,99726.52
2023-04-15T06:26:23.653Z,99723.08
2023-04-15T06:28:51.973Z,99723.91
2023-04-15T06:31:19.868Z,99726.45
2023-04-15T06:33:48.958Z,99728.27
2023-04-15T06:36:16.802Z,99729.55
2023-04-15T06:38:44.922Z,99733.21
2023-04-15T06:41:13.115Z,99732.78
2023-04-15T06:43:40.919Z,99729.09
2023-04-15T06:46:08.849Z,99736.13
2023-04-15T06:48:38.109Z,99738.95
2023-04-15T06:51:06.163Z,99739.15
2023-04-15T06:53:41.154Z,99735.65
2023-04-15T06:56:09.702Z,99736.08
2023-04-15T06:58:37.723Z,99732.52
2023-04-15T07:01:07.063Z,99732.05
2023-04-15T07:03:36.674Z,99730.16
2023-04-15T07:06:06.989Z,99742.59
2023-04-15T07:08:40.696Z,99745.20
2023-04-15T07:11:08.843Z,99740.61
2023-04-15T07:13:36.797Z,99742.06
2023-04-15T07:16:06.103Z,99747.70
2023-04-15T07:18:34.003Z,99741.27
2023-04-15T07:21:02.778Z,99734.73
2023-04-15T07:23:30.748Z,99736.73
2023-04-15T07:26:00.176Z,99738.34
2023-04-15T07:28:28.200Z,99737.36
2023-04-15T07:30:57.355Z,99744.27
2023-04-15T07:33:31.111Z,99738.88
2023-04-15T07:35:59.467Z,99738.27
2023-04-15T07:38:27.431Z,99743.58
2023-04-15T07:40:58.322Z,99743.96
2023-04-15T07:43:26.287Z,99746.86
2023-04-15T07:45:54.128Z,99751.09
2023-04-15T07:48:22.167Z,99748.84
2023-04-15T07:50:53.581Z,99744.36
2023-04-15T07:53:23.310Z,99748.44
2023-04-15T07:55:51.240Z,99752.73
2023-04-15T07:58:24.123Z,99747.92
2023-04-15T08:00:52.933Z,99750.19
2023-04-15T08:03:22.891Z,99749.35
2023-04-15T08:05:53.104Z,99755.65
2023-04-15T08:08:26.478Z,99758.79
2023-04-15T08:10:54.954Z,99758.69
2023-04-15T08:13:23.052Z,99763.92
2023-04-15T08:16:19.405Z,99766.30
2023-04-15T08:18:48.349Z,99775.18
2023-04-15T08:21:16.571Z,99766.27
2023-04-15T08:23:44.888Z,99769.64
2023-04-15T08:26:14.291Z,99769.30
2023-04-15T08:28:44.341Z,99765.04
2023-04-15T08:31:13.509Z,99765.90
2023-04-15T08:33:41.770Z,99766.79
2023-04-15T08:36:11.627Z,99765.63
2023-04-15T08:38:44.648Z,99759.90
2023-04-15T08:41:23.904Z,99758.10
2023-04-15T08:43:58.747Z,99752.65
2023-04-15T08:46:29.389Z,99758.45
2023-04-15T08:48:58.228Z,99755.59
2023-04-15T08:51:30.049Z,99756.91
2023-04-15T08:54:00.601Z,99767.33
2023-04-15T08:56:32.508Z,99771.04
2023-04-15T08:59:00.822Z,99767.84
2023-04-15T09:01:29.364Z,99764.87
2023-04-15T09:03:57.316Z,99767.70
2023-04-15T09:06:25.688Z,99765.45
2023-04-15T09:08:53.896Z,99762.47
2023-04-15T09:11:22.550Z,99766.20
2023-04-15T09:13:50.712Z,99764.65
2023-04-15T09:16:18.873Z,99772.02
2023-04-15T09:18:47.023Z,99770.69
2023-04-15T09:21:16.260Z,99765.05
2023-04-15T09:24:00.610Z,99776.48
2023-04-15T09:26:36.204Z,99767.05
2023-04-15T09:29:06.766Z,99780.49
2023-04-15T09:31:35.276Z,99785.09
2023-04-15T09:34:03.334Z,99789.17
2023-04-15T09:36:52.820Z,99782.70
2023-04-15T09:39:21.204Z,99788.20
2023-04-15T09:42:08.098Z,99787.74
2023-04-15T09:44:36.805Z,99794.08
2023-04-15T09:47:04.681Z,99785.30
2023-04-15T09:49:33.114Z,99784.46
2023-04-15T09:52:05.604Z,99783.69
2023-04-15T09:54:36.498Z,99790.81
2023-04-15T09:57:08.517Z,99775.74
2023-04-15T09:59:36.556Z,99777.90
2023-04-15T10:02:06.379Z,99784.06
2023-04-15T10:04:36.759Z,99792.59
2023-04-15T10:07:05.353Z,99784.29
2023-04-15T10:09:34.860Z,99782.80
2023-04-15T10:12:04.837Z,99793.55
2023-04-15T10:14:34.545Z,99795.27
2023-04-15T10:17:04.333Z,99787.37
2023-04-15T10:19:33.763Z,99791.83
2023-04-15T10:22:02.136Z,99795.44
2023-04-15T10:24:32.302Z,99799.86
2023-04-15T10:27:00.343Z,99797.87
2023-04-15T10:29:28.380Z,99796.75
2023-04-15T10:31:56.738Z,99804.10
2023-04-15T10:34:24.790Z,99804.40
2023-04-15T10:36:56.546Z,99803.34
2023-04-15T10:39:34.287Z,99801.44
2023-04-15T10:42:12.157Z,99801.66
2023-04-15T10:44:41.929Z,99802.72
2023-04-15T10:47:14.895Z,99807.38
2023-04-15T10:49:48.147Z,99815.13
2023-04-15T10:52:17.704Z,99806.55
2023-04-15T10:54:45.556Z,99812.84
2023-04-15T10:57:21.500Z,99813.02
2023-04-15T10:59:58.879Z,99803.56
2023-04-15T11:02:44.209Z,99805.55
2023-04-15T11:05:12.555Z,99813.88
2023-04-15T11:07:49.754Z,99807.69
2023-04-15T11:10:17.658Z,99813.61
2023-04-15T11:12:46.073Z,99819.35
2023-04-15T11:15:33.869Z,99816.97
2023-04-15T11:18:20.975Z,99806.94
2023-04-15T11:20:57.621Z,99804.07
2023-04-15T11:23:28.789Z,99803.91
2023-04-15T11:25:57.978Z,99805.70
2023-04-15T11:28:30.646Z,99802.05
2023-04-15T11:30:58.887Z,99806.98
2023-04-15T11:33:27.066Z,99810.52
2023-04-15T11:35:55.295Z,99807.41
2023-04-15T11:38:23.178Z,99798.33
2023-04-15T11:40:52.314Z,99797.14
2023-04-15T11:43:21.747Z,99801.77
2023-04-15T11:46:01.036Z,99804.47
2023-04-15T11:48:34.068Z,99799.34
2023-04-15T11:51:03.987Z,99801.02
2023-04-15T11:53:40.797Z,99801.01
2023-04-15T11:56:12.258Z,99799.61
2023-04-15T11:58:40.709Z,99798.80
2023-04-15T12:01:08.735Z,99792.98
2023-04-15T12:03:38.747Z,99787.48
2023-04-15T12:06:07.281Z,99792.67
2023-04-15T12:09:09.779Z,99789.36
2023-04-15T12:11:43.950Z,99787.14
2023-04-15T12:14:31.165Z,99782.65
2023-04-15T12:17:05.366Z,99780.53
2023-04-15T12:19:37.778Z,99780.17
2023-04-15T12:22:09.472Z,99777.35
2023-04-15T12:24:39.426Z,99768.39
2023-04-15T12:27:08.405Z,99769.63
2023-04-15T12:29:38.445Z,99759.02
2023-04-15T12:32:08.092Z,99763.46
2023-04-15T12:34:37.828Z,99757.33
2023-04-15T12:37:06.775Z,99756.02
2023-04-15T12:39:39.267Z,99760.30
2023-04-15T12:42:07.571Z,99761.69
2023-04-15T12:44:35.872Z,99765.98
2023-04-15T12:47:04.001Z,99767.38
2023-04-15T12:49:32.770Z,99762.74
2023-04-15T12:52:01.875Z,99753.37
2023-04-15T12:54:30.592Z,99748.61
2023-04-15T12:56:59.221Z,99756.97
2023-04-15T12:59:27.168Z,99755.48
2023-04-15T13:01:55.185Z,99757.98
2023-04-15T13:04:23.620Z,99756.48
2023-04-15T13:06:51.525Z,99755.80
2023-04-15T13:09:19.377Z,99761.45
2023-04-15T13:11:47.266Z,99752.71
2023-04-15T13:14:15.825Z,99749.45
2023-04-15T13:16:44.552Z,99745.30
2023-04-15T13:19:12.418Z,99753.66
2023-04-15T13:21:41.374Z,99749.77
2023-04-15T13:24:09.811Z,99751.64
2023-04-15T13:26:38.004Z,99760.39
2023-04-15T13:29:05.947Z,99757.70
2023-04-15T13:31:33.835Z,99761.66
2023-04-15T13:34:01.892Z,99765.74
2023-04-15T13:36:29.950Z,99759.24
2023-04-15T13:38:58.488Z,99763.48
2023-04-15T13:41:26.354Z,99762.80
2023-04-15T13:43:54.407Z,99761.91
2023-04-15T13:46:22.904Z,99760.04
2023-04-15T13:48:50.909Z,99761.41
2023-04-15T13:51:19.094Z,99764.82
2023-04-15T13:53:47.111Z,99756.27
2023-04-15T13:56:14.980Z,99762.23
2023-04-15T13:58:43.290Z,99764.59
2023-04-15T14:01:11.346Z,99763.92
2023-04-15T14:03:39.997Z,99763.80
2023-04-15T14:06:08.137Z,99766.00
2023-04-15T14:08:36.407Z,99767.24
2023-04-15T14:11:06.475Z,99767.08
2023-04-15T14:13:34.366Z,99762.44
2023-04-15T14:16:02.356Z,99774.02
2023-04-15T14:18:30.798Z,99783.23
2023-04-15T14:20:58.801Z,99785.98
2023-04-15T14:23:27.218Z,99786.81
2023-04-15T14:25:55.118Z,99796.19
2023-04-15T14:28:24.364Z,99798.56
2023-04-15T14:30:52.355Z,99794.30
2023-04-15T14:33:21.816Z,99796.08
2023-04-15T14:35:50.328Z,99799.17
2023-04-15T14:38:19.087Z,99798.66
2023-04-15T14:40:46.939Z,99799.98
2023-04-15T14:43:14.820Z,99803.74
2023-04-15T14:45:44.598Z,99808.19
2023-04-15T14:48:14.223Z,99804.23
2023-04-15T14:50:42.292Z,99810.70
2023-04-15T14:53:10.658Z,99809.19
2023-04-15T14:55:38.535Z,99801.19
2023-04-15T14:58:08.310Z,99804.98
2023-04-15T15:00:39.275Z,99815.38
2023-04-15T15:03:12.973Z,99809.70
2023-04-15T15:05:41.712Z,99807.27
2023-04-15T15:08:10.254Z,99808.33
2023-04-15T15:10:49.116Z,99813.92
2023-04-15T15:13:19.399Z,99801.42
2023-04-15T15:15:49.518Z,99803.63
2023-04-15T15:18:19.108Z,99794.73
2023-04-15T15:20:47.629Z,99794.71
2023-04-15T15:23:15.599Z,99801.05
2023-04-15T15:25:43.974Z,99802.20
2023-04-15T15:28:11.911Z,99803.65
2023-04-15T15:30:40.057Z,99799.00
2023-04-15T15:33:08.083Z,99793.95
2023-04-15T15:35:35.963Z,99794.05
2023-04-15T15:38:03.864Z,99797.46
2023-04-15T15:40:33.955Z,99791.80
2023-04-15T15:43:02.009Z,99797.02
2023-04-15T15:45:30.365Z,99793.95
2023-04-15T15:47:59.228Z,99792.98
2023-04-15T15:50:27.252Z,99790.82
2023-04-15T15:52:55.557Z,99783.65
2023-04-15T15:55:25.332Z,99788.73
2023-04-15T15:57:54.396Z,99789.39
2023-04-15T16:00:23.264Z,99785.44
2023-04-15T16:05:29.180Z,99783.21
2023-04-15T16:07:57.135Z,99779.11
2023-04-15T16:10:24.982Z,99774.33
2023-04-15T16:12:52.855Z,99782.46
2023-04-15T16:15:20.719Z,99791.44
2023-04-15T16:17:48.939Z,99794.81
2023-04-15T16:20:17.034Z,99797.02
2023-04-15T16:22:45.054Z,99806.08
2023-04-15T16:25:13.803Z,99809.65
2023-04-15T16:27:57.800Z,99812.70
2023-04-15T16:30:27.277Z,99803.41
2023-04-15T16:32:55.471Z,99803.74
2023-04-15T16:35:23.366Z,99802.02
2023-04-15T16:37:51.372Z,99802.50
2023-04-15T16:40:19.372Z,99800.96
2023-04-15T16:42:47.285Z,99807.95
2023-04-15T16:45:15.488Z,99803.35
2023-04-15T16:47:43.443Z,99811.52
2023-04-15T16:50:11.479Z,99823.09
2023-04-15T16:52:39.870Z,99831.77
2023-04-15T16:55:08.101Z,99843.15
2023-04-15T16:58:00.893Z,99847.27
2023-04-15T17:00:24.254Z,99851.58
2023-04-15T17:02:52.287Z,99843.54
2023-04-15T17:05:20.208Z,99846.61
2023-04-15T17:07:48.092Z,99846.95
2023-04-15T17:10:16.443Z,99855.23
2023-04-15T17:12:44.679Z,99878.01
2023-04-15T17:15:12.620Z,99897.17
2023-04-15T17:17:40.907Z,99911.02
2023-04-15T17:20:09.423Z,99919.55
2023-04-15T17:22:37.796Z,99915.73
2023-04-15T17:25:06.703Z,99921.70
2023-04-15T17:27:34.848Z,99922.39
2023-04-15T17:30:02.664Z,99918.63
2023-04-15T17:32:34.680Z,99911.11
2023-04-15T17:35:06.630Z,99910.79
2023-04-15T17:37:34.844Z,99920.71
2023-04-15T17:40:02.912Z,99933.58
2023-04-15T17:42:31.326Z,99941.66
2023-04-15T17:44:59.317Z,99944.50
2023-04-15T17:47:27.832Z,99943.84
2023-04-15T17:49:56.032Z,99930.94
2023-04-15T17:52:23.901Z,99921.59
2023-04-15T17:54:51.836Z,99927.18
2023-04-15T17:57:19.719Z,99922.42
2023-04-15T17:59:47.929Z,99916.34
2023-04-15T18:02:16.006Z,99917.73
2023-04-15T18:04:44.714Z,99914.71
2023-04-15T18:07:12.828Z,99912.35
2023-04-15T18:09:41.602Z,99906.88
2023-04-15T18:12:10.427Z,99900.80
2023-04-15T18:14:38.518Z,99893.41
2023-04-15T18:17:07.101Z,99897.67
2023-04-15T18:19:34.985Z,99900.27
2023-04-15T18:22:04.130Z,99898.45
2023-04-15T18:24:32.297Z,99898.61
2023-04-15T18:27:00.347Z,99895.45
2023-04-15T18:29:29.101Z,99895.86
2023-04-15T18:32:00.483Z,99888.13
2023-04-15T18:34:29.630Z,99884.89
2023-04-15T18:36:58.194Z,99879.96
2023-04-15T18:39:26.860Z,99880.79
2023-04-15T18:41:56.058Z,99879.86
2023-04-15T18:44:24.053Z,99884.09
2023-04-15T18:46:52.517Z,99886.48
2023-04-15T18:49:21.138Z,99887.47
2023-04-15T18:51:49.238Z,99894.08
2023-04-15T18:54:17.375Z,99902.58
2023-04-15T18:56:45.793Z,99906.10
2023-04-15T18:59:29.760Z,99907.59
2023-04-15T19:01:59.639Z,99915.45
2023-04-15T19:04:29.351Z,99918.19
2023-04-15T19:06:58.900Z,99919.58
2023-04-15T19:09:28.542Z,99914.27
2023-04-15T19:11:56.895Z,99912.30
2023-04-15T19:14:24.927Z,99914.72
2023-04-15T19:16:52.838Z,99915.73
2023-04-15T19:19:20.706Z,99911.48
2023-04-15T19:21:50.178Z,99905.59
2023-04-15T19:24:18.404Z,99901.20
2023-04-15T19:26:48.063Z,99908.61
2023-04-15T19:29:16.157Z,99909.13
2023-04-15T19:31:44.023Z,99908.31
2023-04-15T19:34:11.989Z,99914.41
2023-04-15T19:36:40.047Z,99912.16
2023-04-15T19:39:08.093Z,99913.56
2023-04-15T19:41:36.312Z,99917.83
2023-04-15T19:44:04.593Z,99916.98
2023-04-15T19:46:32.674Z,99915.48
2023-04-15T19:49:01.366Z,99920.13
2023-04-15T19:51:29.576Z,99925.95
2023-04-15T19:53:57.545Z,99930.38
2023-04-15T19:56:25.853Z,99930.21
2023-04-15T19:58:54.836Z,99928.84
2023-04-15T20:01:23.131Z,99922.17
2023-04-15T20:03:53.073Z,99922.55
2023-04-15T20:06:21.735Z,99924.84
2023-04-15T20:08:50.356Z,99922.75
2023-04-15T20:11:18.200Z,99925.98
2023-04-15T20:13:46.169Z,99924.75
2023-04-15T20:16:14.042Z,99922.71
2023-04-15T20:18:42.074Z,99924.61
2023-04-15T20:21:10.042Z,99926.65
2023-04-15T20:23:38.432Z,99926.09
2023-04-15T20:26:06.772Z,99927.58
2023-04-15T20:28:34.875Z,99926.19
2023-04-15T20:31:02.910Z,99930.66
2023-04-15T20:33:31.343Z,99931.73
2023-04-15T20:36:00.147Z,99935.00
2023-04-15T20:38:28.028Z,99930.73
2023-04-15T20:40:56.051Z,99936.54
2023-04-15T20:43:25.691Z,99936.58
2023-04-15T20:45:56.575Z,99934.75
2023-04-15T20:48:24.640Z,99935.66
2023-04-15T20:50:52.555Z,99932.09
2023-04-15T20:53:20.406Z,99931.30
2023-04-15T20:55:48.250Z,99927.74
2023-04-15T20:58:16.292Z,99925.38
2023-04-15T21:00:45.391Z,99923.23
2023-04-15T21:03:13.525Z,99926.48
2023-04-15T21:05:42.040Z,99923.60
2023-04-15T21:08:09.911Z,99926.66
2023-04-15T21:10:37.854Z,99932.11
2023-04-15T21:13:06.847Z,99937.89
2023-04-15T21:15:34.815Z,99935.30
2023-04-15T21:18:02.823Z,99936.37
2023-04-15T21:20:30.792Z,99938.82
2023-04-15T21:22:58.651Z,99939.38
2023-04-15T21:25:26.980Z,99941.80
2023-04-15T21:27:54.900Z,99939.95
2023-04-15T21:30:23.835Z,99947.67
2023-04-15T21:32:51.740Z,99944.64
2023-04-15T21:35:19.649Z,99947.79
2023-04-15T21:37:47.434Z,99947.36
2023-04-15T21:40:16.170Z,99955.90
2023-04-15T21:42:44.695Z,99954.20
2023-04-15T21:45:12.680Z,99951.41
2023-04-15T21:48:00.716Z,99951.17
2023-04-15T21:50:28.495Z,99952.11
2023-04-15T21:52:56.507Z,99954.17
2023-04-15T21:55:24.682Z,99958.17
2023-04-15T21:57:52.509Z,99962.17
2023-04-15T22:00:21.388Z,99960.36
2023-04-15T22:02:49.685Z,99962.48
2023-04-15T22:05:17.706Z,99964.27
2023-04-15T22:07:45.949Z,99965.48
2023-04-15T22:10:13.833Z,99960.89
2023-04-15T22:12:42.362Z,99963.30
2023-04-15T22:15:10.395Z,99964.13
2023-04-15T22:17:38.374Z,99960.20
2023-04-15T22:20:07.190Z,99966.98
2023-04-15T22:22:43.548Z,99967.15
2023-04-15T22:25:12.684Z,99963.77
2023-04-15T22:27:41.087Z,99961.02
2023-04-15T22:30:10.011Z,99962.03
2023-04-15T22:32:37.967Z,99968.75
2023-04-15T22:35:06.779Z,99971.22
2023-04-15T22:37:34.541Z,99970.37
2023-04-15T22:40:02.825Z,99967.47
2023-04-15T22:42:30.836Z,99968.17
2023-04-15T22:44:58.745Z,99968.05
2023-04-15T22:47:27.028Z,99968.98
2023-04-15T22:49:54.978Z,99967.48
2023-04-15T22:52:30.097Z,99967.00
2023-04-15T22:54:59.453Z,99969.59
2023-04-15T22:57:28.248Z,99970.95
2023-04-15T22:59:56.306Z,99972.16
2023-04-15T23:02:24.458Z,99975.95
2023-04-15T23:04:52.709Z,99978.02
2023-04-15T23:07:20.598Z,99974.27
2023-04-15T23:09:48.470Z,99979.08
2023-04-15T23:12:16.617Z,99980.12
2023-04-15T23:14:44.453Z,99981.98
2023-04-15T23:17:12.322Z,99983.90
2023-04-15T23:19:40.189Z,99983.89
2023-04-15T23:22:10.676Z,99982.39
2023-04-15T23:24:38.593Z,99982.43
2023-04-15T23:27:06.514Z,99985.08
2023-04-15T23:29:34.493Z,99986.27
2023-04-15T23:32:02.909Z,99986.25
2023-04-15T23:34:30.964Z,99987.79
2023-04-15T23:36:58.861Z,99985.91
2023-04-15T23:39:26.824Z,99991.50
2023-04-15T23:41:54.754Z,99992.02
2023-04-15T23:44:23.346Z,99991.76
2023-04-15T23:46:51.413Z,99992.48
2023-04-15T23:49:20.525Z,99990.92
2023-04-15T23:51:48.781Z,99993.34
2023-04-15T23:54:16.645Z,99991.98
2023-04-15T23:56:44.540Z,99994.05
2023-04-15T23:59:13.328Z,99994.44
